Time;durP1;ratioP1;P1;durP2;ratioP2;P2;SDS_P1;SDS_P2;PMS_P1;PMS_P2;Temp;Humidity;BMP_temperature;BMP_pressure;BME280_temperature;BME280_humidity;BME280_pressure;Samples;Min_cycle;Max_cycle;Signal;HPM_P1;HPM_P2
2022/10/20 00:01:20;;;;;;;3.75;1.33;;;;;;;25.10;42.95;100608.88;5033118;28;20108;-57
2022/10/20 00:03:50;;;;;;;2.95;1.02;;;;;;;25.11;43.11;100615.03;5033190;28;20022;-54
2022/10/20 00:06:21;;;;;;;4.97;1.42;;;;;;;25.10;43.28;100618.53;5033022;28;20091;-54
2022/10/20 00:08:50;;;;;;;2.90;1.35;;;;;;;24.99;43.24;100595.72;5033097;28;20033;-56
2022/10/20 00:11:20;;;;;;;3.17;0.80;;;;;;;25.11;43.13;100613.25;5032683;28;20112;-57
2022/10/20 00:13:49;;;;;;;4.53;1.60;;;;;;;25.10;43.09;100619.38;5033248;28;20033;-52
2022/10/20 00:16:18;;;;;;;4.63;1.50;;;;;;;25.07;43.13;100615.88;5032755;28;20033;-56
2022/10/20 00:18:47;;;;;;;3.15;1.00;;;;;;;25.11;42.96;100629.00;5032738;28;20033;-57
2022/10/20 00:21:19;;;;;;;3.15;1.10;;;;;;;25.10;43.12;100629.03;5032692;28;20104;-57
2022/10/20 00:23:48;;;;;;;2.20;1.00;;;;;;;25.09;43.33;100625.50;5032886;28;20479;-58
2022/10/20 00:26:20;;;;;;;2.97;1.20;;;;;;;25.05;43.30;100615.00;5032943;28;20044;-56
2022/10/20 00:28:49;;;;;;;1.38;0.60;;;;;;;25.08;43.36;100618.50;5032836;28;20029;-57
2022/10/20 00:31:18;;;;;;;1.60;0.80;;;;;;;25.09;43.08;100624.66;5032451;28;20386;-56
2022/10/20 00:33:47;;;;;;;3.40;1.50;;;;;;;25.10;43.09;100629.88;5032724;28;20116;-55
2022/10/20 00:36:18;;;;;;;5.43;1.60;;;;;;;25.12;43.06;100622.03;5032566;28;20090;-58
2022/10/20 00:38:46;;;;;;;5.05;1.27;;;;;;;25.09;43.04;100628.13;5032614;28;20033;-58
2022/10/20 00:41:18;;;;;;;3.67;1.20;;;;;;;25.09;43.08;100622.03;5032541;28;20433;-57
2022/10/20 00:43:50;;;;;;;3.13;1.00;;;;;;;25.07;43.34;100626.38;5032323;28;20029;-57
2022/10/20 00:46:22;;;;;;;3.17;1.20;;;;;;;25.03;43.00;100621.13;5032609;28;20057;-57
2022/10/20 00:48:57;;;;;;;3.33;1.10;;;;;;;24.99;43.08;100621.97;5015511;28;20029;-58
2022/10/20 00:51:29;;;;;;;3.53;1.42;;;;;;;25.03;43.09;100626.38;5032831;28;20040;-57
2022/10/20 00:54:05;;;;;;;3.17;1.25;;;;;;;24.90;43.31;100600.09;5015184;28;20030;-57
2022/10/20 00:56:36;;;;;;;2.80;1.17;;;;;;;25.05;42.99;100617.63;5032678;28;20025;-58
2022/10/20 00:59:05;;;;;;;3.17;1.20;;;;;;;25.07;43.29;100621.13;5015125;28;20053;-58
2022/10/20 01:01:34;;;;;;;1.98;0.95;;;;;;;25.00;43.21;100617.63;5032431;28;20403;-58
2022/10/20 01:04:03;;;;;;;3.90;1.10;;;;;;;25.01;43.28;100643.00;5033118;28;20025;-57
2022/10/20 01:06:31;;;;;;;3.28;1.00;;;;;;;25.01;43.34;100659.59;5037140;28;20029;-58
2022/10/20 01:09:00;;;;;;;3.47;1.65;;;;;;;25.02;43.18;100669.22;5036161;28;20025;-57
2022/10/20 01:12:01;;;;;;;3.05;1.20;;;;;;;24.90;43.31;100658.69;5036449;28;20036;-57
2022/10/20 01:14:51;;;;;;;2.80;1.10;;;;;;;24.98;43.38;100672.72;5028989;28;20095;-58
2022/10/20 01:17:24;;;;;;;2.45;1.00;;;;;;;25.02;43.01;100681.50;5011276;28;20044;-58
2022/10/20 01:20:11;;;;;;;3.90;1.45;;;;;;;24.98;43.17;100688.47;5034974;28;20157;-58
2022/10/20 01:22:53;;;;;;;3.53;1.35;;;;;;;25.02;42.90;100690.22;5027740;28;20069;-58
2022/10/20 01:25:52;;;;;;;2.90;1.17;;;;;;;25.00;43.32;100702.47;4995814;28;20030;-58
2022/10/20 01:28:21;;;;;;;5.93;1.50;;;;;;;25.03;42.90;100720.84;5003733;28;20555;-58
2022/10/20 01:30:56;;;;;;;2.92;1.08;;;;;;;24.96;43.41;100718.19;4995575;28;20043;-59
2022/10/20 01:33:33;;;;;;;4.25;1.30;;;;;;;24.98;43.22;100726.94;4996809;28;20029;-56
2022/10/20 01:36:22;;;;;;;3.83;1.20;;;;;;;24.98;43.04;100713.81;4996681;28;20031;-58
2022/10/20 01:38:56;;;;;;;4.80;1.20;;;;;;;24.98;43.22;100725.22;5027996;28;20030;-55
2022/10/20 01:41:45;;;;;;;1.95;1.15;;;;;;;24.95;43.44;100743.56;4996621;28;20034;-57
2022/10/20 01:44:15;;;;;;;4.57;1.27;;;;;;;24.92;43.15;100746.16;4993127;28;20061;-55
2022/10/20 01:46:44;;;;;;;3.70;1.35;;;;;;;24.96;43.44;100747.06;5027765;28;20057;-57
2022/10/20 01:49:14;;;;;;;2.55;1.23;;;;;;;24.94;43.00;100735.66;4996197;28;20030;-57
2022/10/20 01:51:42;;;;;;;3.17;1.00;;;;;;;24.96;43.03;100726.94;4995020;28;20084;-56
2022/10/20 01:54:22;;;;;;;2.83;1.00;;;;;;;24.93;43.42;100711.19;4996125;28;20034;-57
2022/10/20 01:57:11;;;;;;;3.63;0.93;;;;;;;24.91;43.28;100712.03;4996183;28;20092;-58
2022/10/20 01:59:58;;;;;;;4.10;1.38;;;;;;;24.91;43.09;100698.91;4994938;28;20073;-56
2022/10/20 02:02:45;;;;;;;6.30;1.45;;;;;;;24.89;43.21;100704.16;4992585;28;20035;-56
2022/10/20 02:05:25;;;;;;;3.97;1.30;;;;;;;24.92;43.16;100691.06;4996011;28;20030;-58
2022/10/20 02:08:00;;;;;;;3.40;1.02;;;;;;;24.87;42.97;100685.81;4996018;28;20365;-57
2022/10/20 02:10:35;;;;;;;3.13;1.08;;;;;;;24.87;43.17;100671.78;4994449;28;20106;-57
2022/10/20 02:13:05;;;;;;;3.92;1.17;;;;;;;24.87;43.38;100661.28;5026970;28;20030;-58
2022/10/20 02:15:33;;;;;;;2.70;1.10;;;;;;;24.88;42.95;100645.56;4995693;28;20038;-58
2022/10/20 02:18:05;;;;;;;3.67;1.30;;;;;;;24.88;43.01;100615.81;4994527;28;20105;-58
2022/10/20 02:20:34;;;;;;;3.28;0.95;;;;;;;24.85;43.34;100607.94;4994608;28;20453;-57
2022/10/20 02:23:05;;;;;;;2.50;1.02;;;;;;;24.87;43.16;100614.06;5028981;28;20129;-57
2022/10/20 02:25:34;;;;;;;3.90;1.13;;;;;;;24.87;43.24;100619.31;5034855;28;20025;-58
2022/10/20 02:28:04;;;;;;;3.65;1.45;;;;;;;24.84;43.45;100609.69;5034761;28;20124;-57
2022/10/20 02:30:33;;;;;;;2.65;1.15;;;;;;;24.84;43.34;100601.81;5017200;28;20169;-58
2022/10/20 02:33:02;;;;;;;3.47;0.75;;;;;;;24.85;43.07;100621.06;5034527;28;20029;-58
2022/10/20 02:35:32;;;;;;;2.85;1.27;;;;;;;24.84;43.18;100619.28;5034515;28;20040;-57
2022/10/20 02:38:01;;;;;;;3.67;0.93;;;;;;;24.85;43.30;100605.31;5034751;28;20013;-58
2022/10/20 02:40:30;;;;;;;3.45;1.65;;;;;;;24.83;43.45;100599.19;5034782;28;20097;-58
2022/10/20 02:42:59;;;;;;;5.10;1.85;;;;;;;24.81;43.19;100598.31;5033029;28;20025;-58
2022/10/20 02:45:27;;;;;;;2.92;1.05;;;;;;;24.84;43.40;100582.56;5034730;28;20034;-58
2022/10/20 02:47:56;;;;;;;4.47;1.17;;;;;;;24.82;43.44;100565.97;5034600;28;20024;-57
2022/10/20 02:50:24;;;;;;;4.30;0.95;;;;;;;24.78;43.07;100557.19;5034366;28;20425;-58
2022/10/20 02:52:53;;;;;;;2.85;0.82;;;;;;;24.80;43.26;100558.06;5034317;28;20025;-58
2022/10/20 02:55:21;;;;;;;3.58;1.10;;;;;;;24.78;43.47;100551.94;5034181;28;20038;-58
2022/10/20 02:57:52;;;;;;;3.53;1.17;;;;;;;24.77;43.33;100544.09;5034335;28;20067;-58
2022/10/20 03:00:21;;;;;;;3.60;0.90;;;;;;;24.78;43.32;100530.97;5034206;28;20111;-58
2022/10/20 03:02:50;;;;;;;4.80;1.40;;;;;;;24.76;43.25;100537.94;5033800;28;20033;-57
2022/10/20 03:05:18;;;;;;;4.25;1.45;;;;;;;24.69;43.57;100525.66;5034143;28;20386;-58
2022/10/20 03:07:47;;;;;;;4.40;1.73;;;;;;;24.79;43.43;100530.09;5034139;28;20057;-56
2022/10/20 03:10:15;;;;;;;3.67;0.88;;;;;;;24.79;43.46;100531.84;5034053;28;20482;-57
2022/10/20 03:12:44;;;;;;;3.70;1.55;;;;;;;24.77;43.43;100529.19;5034130;28;20053;-58
2022/10/20 03:15:12;;;;;;;5.28;1.10;;;;;;;24.77;43.09;100526.59;5033888;28;20029;-58
2022/10/20 03:17:41;;;;;;;4.68;1.40;;;;;;;24.75;43.38;100515.22;5034511;28;20374;-57
2022/10/20 03:20:10;;;;;;;3.15;1.02;;;;;;;24.76;43.44;100505.59;5033867;28;20030;-59
2022/10/20 03:22:38;;;;;;;3.13;1.23;;;;;;;24.75;43.58;100509.09;5033430;28;20498;-58
2022/10/20 03:25:07;;;;;;;1.95;0.80;;;;;;;24.76;43.44;100501.22;5015992;28;20068;-58
2022/10/20 03:27:35;;;;;;;2.72;0.95;;;;;;;24.78;43.18;100498.63;5033166;28;20091;-58
2022/10/20 03:30:04;;;;;;;2.35;0.77;;;;;;;24.77;43.34;100491.63;5033659;28;20029;-59
2022/10/20 03:32:33;;;;;;;2.22;0.80;;;;;;;24.75;43.58;100488.13;5033623;28;20026;-57
2022/10/20 03:35:01;;;;;;;2.95;0.90;;;;;;;24.77;43.07;100475.88;5033405;28;20029;-57
2022/10/20 03:37:30;;;;;;;2.83;1.05;;;;;;;24.73;43.37;100462.75;5033790;28;20065;-58
2022/10/20 03:39:58;;;;;;;2.72;0.93;;;;;;;24.69;43.47;100454.84;5033932;28;20086;-58
2022/10/20 03:42:27;;;;;;;2.97;0.95;;;;;;;24.68;43.25;100443.47;5033818;28;20029;-55
2022/10/20 03:44:55;;;;;;;2.78;0.88;;;;;;;24.70;43.42;100426.03;5033660;28;20040;-57
2022/10/20 03:47:24;;;;;;;4.22;1.23;;;;;;;24.68;43.59;100422.47;5033177;28;20026;-58
2022/10/20 03:49:53;;;;;;;2.25;0.80;;;;;;;24.64;43.46;100419.84;5033213;28;20180;-57
2022/10/20 03:52:21;;;;;;;3.10;0.98;;;;;;;24.66;43.51;100421.59;5033408;28;20120;-58
2022/10/20 03:54:50;;;;;;;2.88;0.88;;;;;;;24.68;43.53;100421.63;5032915;28;20037;-55
2022/10/20 03:57:19;;;;;;;2.67;0.98;;;;;;;24.66;43.36;100424.22;5033418;28;20022;-57
2022/10/20 03:59:47;;;;;;;2.25;0.88;;;;;;;24.63;43.16;100408.50;5032799;28;20482;-57
2022/10/20 04:02:36;;;;;;;2.83;1.00;;;;;;;24.64;43.46;100427.72;5069844;22;20047;-56
2022/10/20 04:05:05;;;;;;;2.63;0.82;;;;;;;24.66;43.45;100432.09;4978922;28;20120;-57
2022/10/20 04:07:33;;;;;;;3.10;0.98;;;;;;;24.67;43.53;100428.59;4993494;28;20113;-58
2022/10/20 04:10:02;;;;;;;2.08;0.93;;;;;;;24.60;43.23;100421.63;4994030;28;20049;-56
2022/10/20 04:12:31;;;;;;;2.88;0.90;;;;;;;24.66;43.48;100439.97;4976225;28;20137;-56
2022/10/20 04:15:00;;;;;;;2.15;0.73;;;;;;;24.67;43.47;100446.97;4993694;28;20030;-58
2022/10/20 04:17:28;;;;;;;2.00;0.95;;;;;;;24.67;43.61;100446.97;4993667;28;20027;-57
2022/10/20 04:19:57;;;;;;;2.50;0.63;;;;;;;24.66;43.46;100449.59;4993627;28;20026;-59
2022/10/20 04:22:25;;;;;;;3.08;0.77;;;;;;;24.65;43.55;100451.34;4993565;28;20113;-57
2022/10/20 04:24:54;;;;;;;2.08;0.80;;;;;;;24.66;43.46;100460.09;4993264;28;20399;-57
2022/10/20 04:27:22;;;;;;;3.30;0.80;;;;;;;24.67;43.50;100465.31;4993533;28;20034;-57
2022/10/20 04:29:51;;;;;;;1.50;0.82;;;;;;;24.67;43.37;100464.47;4993630;28;20083;-57
2022/10/20 04:32:19;;;;;;;2.58;0.90;;;;;;;24.63;43.53;100453.09;4993279;28;20106;-57
2022/10/20 04:34:48;;;;;;;1.90;0.60;;;;;;;24.66;43.43;100462.72;4993366;28;20110;-57
2022/10/20 04:37:16;;;;;;;4.35;1.13;;;;;;;24.63;43.44;100465.31;4993357;28;20033;-58
2022/10/20 04:39:44;;;;;;;2.90;1.00;;;;;;;24.64;43.23;100464.44;4995638;28;20026;-55
2022/10/20 04:42:13;;;;;;;2.65;0.73;;;;;;;24.53;43.17;100449.56;4997482;28;20439;-57
2022/10/20 04:44:41;;;;;;;2.70;0.82;;;;;;;24.62;43.55;100467.06;4997570;28;20034;-55
2022/10/20 04:47:10;;;;;;;2.38;0.85;;;;;;;24.61;43.39;100473.19;4997173;28;20045;-58
2022/10/20 04:49:38;;;;;;;2.08;0.90;;;;;;;24.63;43.38;100467.94;4997294;28;20111;-58
2022/10/20 04:52:07;;;;;;;1.48;0.70;;;;;;;24.63;43.64;100473.19;4980236;28;20027;-58
2022/10/20 04:54:36;;;;;;;1.23;0.73;;;;;;;24.61;43.49;100467.94;4980233;28;20110;-48
2022/10/20 04:57:05;;;;;;;2.33;0.68;;;;;;;24.59;43.46;100469.69;4997227;28;20026;-58
2022/10/20 04:59:33;;;;;;;1.95;0.60;;;;;;;24.63;43.31;100476.69;4996939;28;20030;-57
2022/10/20 05:02:02;;;;;;;2.17;0.70;;;;;;;24.64;43.26;100472.31;4996995;28;20050;-56
2022/10/20 05:04:30;;;;;;;1.15;0.60;;;;;;;24.67;43.01;100474.94;4996786;28;20510;-57
2022/10/20 05:06:59;;;;;;;2.08;0.82;;;;;;;24.62;43.50;100474.94;4997222;28;20038;-57
2022/10/20 05:09:27;;;;;;;1.17;0.50;;;;;;;24.63;43.37;100479.31;4997280;28;20030;-56
2022/10/20 05:11:56;;;;;;;2.40;0.65;;;;;;;24.64;43.30;100483.69;4997018;28;20483;-57
2022/10/20 05:14:25;;;;;;;2.28;0.90;;;;;;;24.63;43.48;100489.81;4996866;28;20030;-57
2022/10/20 05:16:53;;;;;;;1.92;0.88;;;;;;;24.62;43.45;100492.41;4996894;28;20386;-57
2022/10/20 05:19:22;;;;;;;2.92;0.98;;;;;;;24.62;43.16;100497.66;4996840;28;20482;-58
2022/10/20 05:21:51;;;;;;;1.30;0.73;;;;;;;24.65;43.05;100498.56;4996632;28;20062;-57
2022/10/20 05:24:19;;;;;;;1.35;0.50;;;;;;;24.62;43.38;100498.56;4996784;28;20050;-57
2022/10/20 05:26:48;;;;;;;2.05;0.70;;;;;;;24.65;43.07;100501.19;4996883;28;20026;-58
2022/10/20 05:29:17;;;;;;;0.85;0.40;;;;;;;24.64;43.00;100502.06;4996752;28;20026;-56
2022/10/20 05:31:45;;;;;;;1.52;0.65;;;;;;;24.59;43.49;100493.28;4996468;28;20387;-57
2022/10/20 05:34:14;;;;;;;1.10;0.38;;;;;;;24.62;43.08;100498.56;4996670;28;20030;-56
2022/10/20 05:36:43;;;;;;;3.42;0.70;;;;;;;24.58;43.42;100488.91;4979228;28;20101;-58
2022/10/20 05:39:11;;;;;;;2.83;0.95;;;;;;;24.65;43.17;100489.81;4996080;28;20022;-58
2022/10/20 05:41:40;;;;;;;3.30;0.60;;;;;;;24.64;43.22;100490.69;4996423;28;20034;-58
2022/10/20 05:44:11;;;;;;;1.00;0.45;;;;;;;24.65;43.25;100493.31;4996894;28;20109;-57
2022/10/20 05:46:41;;;;;;;2.15;0.55;;;;;;;24.66;43.26;100499.44;5011245;28;20232;-57
2022/10/20 05:49:14;;;;;;;1.35;0.60;;;;;;;24.62;43.27;100485.44;4996144;28;20029;-56
2022/10/20 05:51:43;;;;;;;1.30;0.50;;;;;;;24.62;43.23;100493.31;4995908;28;20084;-57
2022/10/20 05:54:13;;;;;;;1.50;0.40;;;;;;;24.64;42.89;100496.81;4996708;28;20046;-53
2022/10/20 05:56:42;;;;;;;1.27;0.50;;;;;;;24.58;42.90;100492.41;4979371;28;20034;-57
2022/10/20 05:59:11;;;;;;;0.98;0.50;;;;;;;24.60;43.25;100500.28;4996289;28;20037;-55
2022/10/20 06:01:47;;;;;;;1.08;0.43;;;;;;;24.62;42.90;100511.66;4995575;28;20046;-53
2022/10/20 06:04:18;;;;;;;1.27;0.63;;;;;;;24.63;43.20;100502.94;4978645;28;20180;-57
2022/10/20 06:06:47;;;;;;;1.73;0.60;;;;;;;24.63;42.88;100508.16;4995863;28;20463;-57
2022/10/20 06:09:16;;;;;;;1.30;0.50;;;;;;;24.60;42.82;100499.41;4996303;28;20053;-56
2022/10/20 06:11:44;;;;;;;1.42;0.60;;;;;;;24.60;43.17;100505.53;4995917;28;20022;-53
2022/10/20 06:14:13;;;;;;;2.30;0.60;;;;;;;24.60;43.09;100507.25;4995838;28;20084;-56
2022/10/20 06:16:42;;;;;;;3.80;0.55;;;;;;;24.55;43.36;100508.16;4995674;28;20030;-57
2022/10/20 06:19:11;;;;;;;0.50;0.30;;;;;;;24.57;42.98;100513.38;4978267;28;20108;-53
2022/10/20 06:21:39;;;;;;;1.35;0.50;;;;;;;24.53;42.93;100501.13;4995844;28;20066;-57
2022/10/20 06:24:09;;;;;;;3.40;0.80;;;;;;;24.62;42.85;100514.28;4995750;28;20018;-55
2022/10/20 06:26:39;;;;;;;1.88;0.40;;;;;;;24.60;43.19;100508.16;4978490;28;20034;-57
2022/10/20 06:29:10;;;;;;;2.08;0.80;;;;;;;24.58;42.77;100505.50;4995333;28;20022;-57
2022/10/20 06:31:41;;;;;;;1.63;0.60;;;;;;;24.58;43.11;100518.63;5010245;28;20038;-58
2022/10/20 06:34:13;;;;;;;1.20;0.43;;;;;;;24.58;43.15;100510.75;4995602;28;20117;-57
2022/10/20 06:36:43;;;;;;;1.95;0.50;;;;;;;24.62;43.06;100519.53;4995562;28;20036;-54
2022/10/20 06:39:14;;;;;;;1.48;0.60;;;;;;;24.60;42.87;100515.13;4995011;28;20042;-57
2022/10/20 06:41:42;;;;;;;1.60;0.63;;;;;;;24.58;42.75;100507.28;4995388;28;20062;-56
2022/10/20 06:44:11;;;;;;;0.88;0.60;;;;;;;24.56;42.86;100509.91;4995180;28;20482;-57
2022/10/20 06:46:40;;;;;;;0.75;0.47;;;;;;;24.59;42.82;100511.66;5010355;28;20038;-56
2022/10/20 06:49:10;;;;;;;1.23;0.60;;;;;;;24.58;42.69;100509.91;5009869;28;20038;-58
2022/10/20 06:51:39;;;;;;;1.40;0.60;;;;;;;24.62;42.99;100509.03;5010015;28;20435;-57
2022/10/20 06:54:08;;;;;;;2.25;0.80;;;;;;;24.64;42.95;100512.53;4994951;28;20061;-57
2022/10/20 06:56:37;;;;;;;2.50;0.52;;;;;;;24.59;42.98;100514.28;4995181;28;20395;-55
2022/10/20 06:59:05;;;;;;;1.33;0.57;;;;;;;24.60;43.08;100520.38;5009839;28;20037;-57
2022/10/20 07:01:36;;;;;;;2.10;0.60;;;;;;;24.56;42.82;100522.13;4993785;28;20022;-57
2022/10/20 07:04:06;;;;;;;1.83;0.63;;;;;;;24.62;42.94;100519.53;4994935;28;20034;-58
2022/10/20 07:06:38;;;;;;;1.73;0.85;;;;;;;24.60;42.74;100518.66;4994642;28;20041;-57
2022/10/20 07:09:07;;;;;;;1.35;0.47;;;;;;;24.61;42.75;100520.41;4995230;28;20030;-57
2022/10/20 07:11:36;;;;;;;0.77;0.35;;;;;;;24.62;42.65;100530.03;4994948;28;20027;-58
2022/10/20 07:14:05;;;;;;;0.98;0.50;;;;;;;24.66;42.55;100518.66;4994968;28;20026;-57
2022/10/20 07:16:35;;;;;;;4.15;0.77;;;;;;;24.66;42.79;100523.88;4994531;28;20383;-57
2022/10/20 07:19:04;;;;;;;2.92;0.95;;;;;;;24.65;42.62;100527.41;4994273;28;20409;-56
2022/10/20 07:21:35;;;;;;;3.95;0.82;;;;;;;24.61;43.00;100525.66;4994350;28;20093;-57
2022/10/20 07:24:05;;;;;;;2.20;0.60;;;;;;;24.60;42.77;100521.28;4977233;28;20030;-57
2022/10/20 07:26:35;;;;;;;1.98;0.80;;;;;;;24.58;42.93;100517.75;4994546;28;20033;-57
2022/10/20 07:29:04;;;;;;;1.55;0.60;;;;;;;24.61;42.78;100507.28;4994308;28;20475;-57
2022/10/20 07:31:38;;;;;;;1.30;0.50;;;;;;;24.60;42.72;100512.50;4994181;28;20096;-58
2022/10/20 07:34:08;;;;;;;2.15;0.90;;;;;;;24.60;42.61;100515.13;4994854;28;20030;-58
2022/10/20 07:36:37;;;;;;;3.00;0.80;;;;;;;24.61;42.87;100517.78;4994022;28;20034;-58
2022/10/20 07:39:06;;;;;;;1.05;0.57;;;;;;;24.64;42.51;100523.03;4994236;28;20109;-58
2022/10/20 07:41:36;;;;;;;1.67;0.52;;;;;;;24.71;42.43;100530.06;4994240;28;20128;-58
2022/10/20 07:44:05;;;;;;;1.25;0.43;;;;;;;24.67;42.37;100528.25;5008840;28;20026;-57
2022/10/20 07:46:33;;;;;;;2.45;0.60;;;;;;;24.70;42.73;100516.97;4994375;28;20030;-58
2022/10/20 07:49:02;;;;;;;1.75;0.70;;;;;;;24.72;42.46;100526.56;4994405;28;20030;-51
2022/10/20 07:51:33;;;;;;;3.50;0.60;;;;;;;24.76;42.54;100523.97;4994101;28;20030;-56
2022/10/20 07:54:05;;;;;;;1.45;0.65;;;;;;;24.79;42.63;100526.59;4993821;28;20026;-57
2022/10/20 07:56:36;;;;;;;0.40;0.30;;;;;;;24.82;42.20;100524.84;4977018;28;20109;-57
2022/10/20 07:59:05;;;;;;;1.33;0.52;;;;;;;24.81;42.41;100520.47;4993963;28;20026;-56
2022/10/20 08:01:33;;;;;;;1.92;0.60;;;;;;;24.85;42.29;100529.22;4993486;28;20058;-56
2022/10/20 08:04:02;;;;;;;3.58;0.80;;;;;;;24.94;42.03;100528.38;4994070;28;20034;-56
2022/10/20 08:06:31;;;;;;;2.50;1.00;;;;;;;24.93;42.18;100526.63;4993753;28;20475;-57
2022/10/20 08:08:59;;;;;;;5.90;1.00;;;;;;;24.96;42.40;100521.38;4993791;28;20038;-57
2022/10/20 08:11:28;;;;;;;1.60;0.75;;;;;;;24.96;42.17;100513.50;4993795;28;20093;-56
2022/10/20 08:13:57;;;;;;;2.97;1.02;;;;;;;24.99;42.22;100510.91;4976430;28;20054;-57
2022/10/20 08:16:25;;;;;;;2.58;0.85;;;;;;;25.02;41.98;100517.00;5008340;28;20034;-55
2022/10/20 08:18:54;;;;;;;1.50;0.88;;;;;;;25.10;41.95;100514.41;4993514;28;20038;-57
2022/10/20 08:21:23;;;;;;;2.05;0.90;;;;;;;25.13;42.07;100518.78;4993761;28;20034;-57
2022/10/20 08:23:51;;;;;;;2.95;1.00;;;;;;;25.10;41.93;100522.28;4993547;28;20521;-56
2022/10/20 08:26:22;;;;;;;2.58;0.90;;;;;;;25.16;42.11;100524.91;4993872;28;20105;-57
2022/10/20 08:28:53;;;;;;;1.63;0.90;;;;;;;25.17;42.08;100515.28;4976308;28;20081;-56
2022/10/20 08:31:22;;;;;;;2.33;0.90;;;;;;;25.16;41.99;100519.66;4993540;28;20106;-57
2022/10/20 08:33:50;;;;;;;2.67;1.17;;;;;;;25.22;42.23;100510.91;4993718;28;20026;-57
2022/10/20 08:36:19;;;;;;;1.70;0.80;;;;;;;25.28;42.07;100515.28;4993345;28;20039;-54
2022/10/20 08:38:48;;;;;;;2.65;1.55;;;;;;;25.19;42.08;100508.28;4993304;28;20034;-56
2022/10/20 08:41:23;;;;;;;2.47;0.93;;;;;;;25.28;42.04;100512.66;4976309;28;20037;-56
2022/10/20 08:43:53;;;;;;;3.33;1.23;;;;;;;25.27;42.26;100508.28;4993340;28;20538;-57
2022/10/20 08:46:31;;;;;;;2.85;1.23;;;;;;;25.23;42.16;100506.56;4993610;28;20114;-57
2022/10/20 08:49:00;;;;;;;4.00;1.25;;;;;;;25.24;42.22;100503.91;4993262;28;20057;-58
2022/10/20 08:51:32;;;;;;;2.28;0.88;;;;;;;25.28;42.41;100504.78;4976315;28;20033;-57
2022/10/20 08:54:02;;;;;;;4.35;1.30;;;;;;;25.33;42.19;100492.53;4993592;28;20034;-55
2022/10/20 08:56:31;;;;;;;3.42;1.00;;;;;;;25.35;42.07;100490.81;4993500;28;20038;-58
2022/10/20 08:59:00;;;;;;;2.75;1.00;;;;;;;25.32;42.10;100486.41;5008081;28;20085;-57
2022/10/20 09:01:33;;;;;;;5.28;1.77;;;;;;;25.33;42.39;100495.16;4992996;28;20058;-55
2022/10/20 09:04:16;;;;;;;3.03;0.93;;;;;;;25.34;42.63;100512.69;4993233;28;20034;-57
2022/10/20 09:06:47;;;;;;;5.15;1.63;;;;;;;25.36;42.43;100510.94;4993186;28;20478;-58
2022/10/20 09:09:18;;;;;;;3.13;1.15;;;;;;;25.40;42.55;100507.41;5007785;28;20030;-57
2022/10/20 09:11:46;;;;;;;2.88;1.13;;;;;;;25.41;42.42;100497.78;4993137;28;20045;-58
2022/10/20 09:14:16;;;;;;;1.92;0.80;;;;;;;25.38;42.60;100506.56;4993235;28;20592;-56
2022/10/20 09:16:45;;;;;;;3.10;1.40;;;;;;;25.38;42.55;100508.28;4992686;28;20066;-58
2022/10/20 09:19:19;;;;;;;3.22;1.00;;;;;;;25.40;42.18;100504.78;4976289;28;20026;-58
2022/10/20 09:21:51;;;;;;;2.70;1.25;;;;;;;25.42;42.22;100487.31;4992901;28;20031;-58
2022/10/20 09:24:22;;;;;;;1.95;1.00;;;;;;;25.44;42.30;100479.44;4976184;28;20114;-58
2022/10/20 09:26:53;;;;;;;1.75;0.88;;;;;;;25.40;42.37;100473.28;5011528;28;20084;-57
2022/10/20 09:29:23;;;;;;;1.30;0.68;;;;;;;25.41;42.55;100480.28;4996904;28;20088;-57
2022/10/20 09:31:53;;;;;;;2.60;0.98;;;;;;;25.45;42.49;100463.69;4996805;28;20022;-57
2022/10/20 09:34:24;;;;;;;2.25;1.20;;;;;;;25.44;42.57;100461.94;4996549;28;20125;-58
2022/10/20 09:37:05;;;;;;;3.67;1.10;;;;;;;25.44;42.59;100454.06;4996599;28;20487;-58
2022/10/20 09:39:53;;;;;;;2.65;1.23;;;;;;;25.47;42.60;100453.19;4963165;28;20030;-58
2022/10/20 09:42:25;;;;;;;3.80;1.10;;;;;;;25.52;42.49;100459.28;4979091;28;20402;-58
2022/10/20 09:45:16;;;;;;;3.85;1.20;;;;;;;25.51;42.76;100454.91;4996590;28;20513;-58
2022/10/20 09:47:48;;;;;;;1.65;0.80;;;;;;;25.52;42.54;100459.28;4996775;28;20117;-57
2022/10/20 09:50:39;;;;;;;2.53;0.95;;;;;;;25.53;42.71;100466.28;4996279;28;20027;-57
2022/10/20 09:53:18;;;;;;;2.22;0.80;;;;;;;25.44;42.30;100438.28;4996600;28;20106;-57
2022/10/20 09:55:49;;;;;;;1.60;0.70;;;;;;;25.52;42.62;100456.66;4978980;28;20475;-56
2022/10/20 09:58:37;;;;;;;2.95;1.00;;;;;;;25.57;42.72;100448.78;5011467;28;20391;-57
2022/10/20 10:01:16;;;;;;;2.88;0.93;;;;;;;25.53;42.58;100437.41;4996342;28;20030;-56
2022/10/20 10:03:46;;;;;;;2.22;1.08;;;;;;;25.61;42.41;100456.66;5010235;28;20056;-57
2022/10/20 10:06:34;;;;;;;2.80;0.90;;;;;;;25.55;42.82;100437.41;4996035;28;20529;-56
2022/10/20 10:09:03;;;;;;;2.13;0.80;;;;;;;25.61;42.75;100437.38;4995378;28;20074;-57
2022/10/20 10:11:35;;;;;;;2.45;0.77;;;;;;;25.63;42.49;100438.25;4978476;28;20108;-54
2022/10/20 10:14:04;;;;;;;4.40;0.88;;;;;;;25.61;42.65;100430.41;4978810;28;20026;-57
2022/10/20 10:16:41;;;;;;;3.20;0.85;;;;;;;25.61;42.53;100425.16;5010887;28;20030;-57
2022/10/20 10:19:18;;;;;;;2.35;0.90;;;;;;;25.62;42.40;100419.03;4995691;28;20037;-57
2022/10/20 10:21:49;;;;;;;5.50;0.90;;;;;;;25.65;42.52;100426.00;4978754;28;20489;-57
2022/10/20 10:24:46;;;;;;;4.90;0.75;;;;;;;25.62;42.50;100426.00;4978270;28;20030;-58
2022/10/20 10:27:34;;;;;;;2.97;0.68;;;;;;;25.60;42.67;100420.78;4978479;28;20034;-52
2022/10/20 10:30:27;;;;;;;2.50;0.88;;;;;;;25.63;42.97;100422.50;4978547;28;20030;-56
2022/10/20 10:32:56;;;;;;;3.20;0.90;;;;;;;25.67;42.73;100405.88;4995673;28;20069;-56
2022/10/20 10:35:33;;;;;;;1.50;0.63;;;;;;;25.61;42.77;100424.25;4995532;28;20076;-57
2022/10/20 10:38:03;;;;;;;3.17;1.10;;;;;;;25.65;42.69;100407.63;4978198;28;20101;-53
2022/10/20 10:40:50;;;;;;;1.63;0.70;;;;;;;25.59;42.68;100408.50;4995527;28;20019;-57
2022/10/20 10:43:50;;;;;;;4.07;1.42;;;;;;;25.54;42.81;100406.78;4995520;28;20449;-57
2022/10/20 10:46:22;;;;;;;4.15;1.05;;;;;;;25.56;43.01;100387.50;4995370;28;20546;-57
2022/10/20 10:48:54;;;;;;;3.30;1.00;;;;;;;25.55;43.15;100391.00;4978048;28;20390;-56
2022/10/20 10:51:32;;;;;;;4.15;1.10;;;;;;;25.54;43.07;100384.00;4995318;28;20038;-57
2022/10/20 10:54:19;;;;;;;3.63;0.98;;;;;;;25.50;43.34;100374.38;4995188;28;20433;-57
2022/10/20 10:56:56;;;;;;;11.27;1.10;;;;;;;25.51;43.33;100370.88;4994983;28;20030;-57
2022/10/20 10:59:33;;;;;;;5.60;1.23;;;;;;;25.50;43.50;100373.53;4995430;28;20542;-57
2022/10/20 11:02:17;;;;;;;6.07;1.15;;;;;;;25.47;43.19;100371.78;4994867;28;20051;-56
2022/10/20 11:04:54;;;;;;;2.97;0.63;;;;;;;25.58;42.90;100371.72;5010142;28;20061;-57
2022/10/20 11:08:00;;;;;;;1.58;0.50;;;;;;;25.70;42.82;100371.72;4995030;28;20034;-57
2022/10/20 11:10:53;;;;;;;3.30;1.27;;;;;;;25.76;42.14;100366.41;4988635;28;20491;-58
2022/10/20 11:13:44;;;;;;;5.05;1.30;;;;;;;25.79;42.42;100353.28;4989189;28;20104;-58
2022/10/20 11:16:20;;;;;;;6.78;1.45;;;;;;;25.83;42.29;100351.50;4988036;28;20442;-58
2022/10/20 11:18:49;;;;;;;6.97;1.55;;;;;;;25.84;42.45;100345.34;4994533;28;20378;-58
2022/10/20 11:21:41;;;;;;;7.32;1.73;;;;;;;25.79;42.52;100355.03;4994401;28;20034;-57
2022/10/20 11:24:45;;;;;;;9.15;1.85;;;;;;;25.80;42.15;100341.03;4961086;28;20035;-58
2022/10/20 11:27:18;;;;;;;7.35;2.50;;;;;;;25.82;42.12;100327.88;4987909;28;20479;-58
2022/10/20 11:29:56;;;;;;;9.93;2.10;;;;;;;25.78;42.13;100327.00;4994452;28;20100;-58
2022/10/20 11:32:29;;;;;;;7.03;1.90;;;;;;;25.72;42.06;100327.03;4994134;28;20027;-57
2022/10/20 11:35:03;;;;;;;10.30;2.67;;;;;;;25.73;41.87;100326.16;4992976;28;20394;-58
2022/10/20 11:37:39;;;;;;;11.02;1.90;;;;;;;25.75;41.77;100321.78;5009512;28;20022;-56
2022/10/20 11:40:24;;;;;;;9.27;1.90;;;;;;;25.69;41.94;100317.41;4977030;28;20483;-58
2022/10/20 11:43:17;;;;;;;9.27;1.95;;;;;;;25.69;42.24;100311.28;4994242;28;20034;-58
2022/10/20 11:45:50;;;;;;;5.85;1.40;;;;;;;25.66;42.62;100304.28;4987652;28;20046;-58
2022/10/20 11:48:29;;;;;;;8.38;1.73;;;;;;;25.63;42.64;100304.31;4993971;28;20030;-56